createdAt,value
2018-09-03T00:00:01.322Z,19.77
2018-09-03T00:02:29.840Z,19.57
2018-09-03T00:04:57.350Z,19.43
2018-09-03T00:07:24.862Z,20.00
2018-09-03T00:09:52.415Z,20.33
2018-09-03T00:12:19.921Z,20.20
2018-09-03T00:14:47.460Z,20.40
2018-09-03T00:17:14.994Z,20.27
2018-09-03T00:19:42.665Z,21.67
2018-09-03T00:22:10.208Z,18.23
2018-09-03T00:24:37.756Z,20.50
2018-09-03T00:27:05.317Z,19.20
2018-09-03T00:29:32.894Z,19.00
2018-09-03T00:32:06.192Z,19.67
2018-09-03T00:34:39.411Z,20.60
2018-09-03T00:37:12.554Z,19.07
2018-09-03T00:39:45.786Z,17.67
2018-09-03T00:42:18.953Z,18.50
2018-09-03T00:44:52.170Z,19.50
2018-09-03T00:47:19.709Z,18.87
2018-09-03T00:49:47.308Z,18.27
2018-09-03T00:52:14.830Z,18.10
2018-09-03T00:54:42.442Z,17.70
2018-09-03T00:57:09.951Z,20.93
2018-09-03T00:59:37.492Z,18.20
2018-09-03T01:02:05.132Z,17.70
2018-09-03T01:04:32.768Z,17.07
2018-09-03T01:07:00.273Z,17.60
2018-09-03T01:09:27.769Z,18.17
2018-09-03T01:11:55.362Z,19.07
2018-09-03T01:14:22.864Z,18.27
2018-09-03T01:16:50.381Z,16.97
2018-09-03T01:19:17.903Z,18.77
2018-09-03T01:21:45.455Z,18.57
2018-09-03T01:24:12.937Z,17.33
2018-09-03T01:26:40.473Z,18.43
2018-09-03T01:29:07.938Z,18.40
2018-09-03T01:31:35.452Z,18.07
2018-09-03T01:34:02.996Z,18.33
2018-09-03T01:36:30.506Z,18.37
2018-09-03T01:38:58.025Z,16.77
2018-09-03T01:41:25.509Z,17.90
2018-09-03T01:43:53.018Z,17.27
2018-09-03T01:46:20.556Z,19.40
2018-09-03T01:48:48.110Z,16.40
2018-09-03T01:51:15.663Z,17.10
2018-09-03T01:53:43.168Z,18.70
2018-09-03T01:56:10.637Z,17.70
2018-09-03T01:58:38.140Z,17.60
2018-09-03T02:01:05.712Z,18.93
2018-09-03T02:03:33.469Z,18.67
2018-09-03T02:06:01.013Z,18.27
2018-09-03T02:08:28.978Z,20.40
2018-09-03T02:10:56.474Z,19.03
2018-09-03T02:13:24.274Z,20.40
2018-09-03T02:15:51.756Z,18.97
2018-09-03T02:18:19.247Z,19.93
2018-09-03T02:20:46.765Z,18.27
2018-09-03T02:23:14.267Z,17.83
2018-09-03T02:25:41.765Z,18.50
2018-09-03T02:28:09.264Z,17.97
2018-09-03T02:30:36.825Z,17.70
2018-09-03T02:33:04.466Z,19.13
2018-09-03T02:35:32.001Z,18.33
2018-09-03T02:37:59.493Z,19.37
2018-09-03T02:40:26.980Z,18.90
2018-09-03T02:42:54.472Z,17.90
2018-09-03T02:45:21.978Z,20.33
2018-09-03T02:47:49.495Z,20.00
2018-09-03T02:50:16.996Z,21.17
2018-09-03T02:52:44.542Z,18.73
2018-09-03T02:55:12.099Z,20.70
2018-09-03T02:57:39.604Z,18.03
2018-09-03T03:00:07.227Z,19.60
2018-09-03T03:02:34.746Z,19.33
2018-09-03T03:05:02.291Z,18.03
2018-09-03T03:07:29.801Z,17.50
2018-09-03T03:09:57.350Z,18.50
2018-09-03T03:12:25.401Z,19.07
2018-09-03T03:14:56.185Z,18.60
2018-09-03T03:17:23.654Z,18.90
2018-09-03T03:19:51.135Z,19.43
2018-09-03T03:22:19.139Z,21.80
2018-09-03T03:24:46.643Z,19.90
2018-09-03T03:27:14.570Z,18.40
2018-09-03T03:29:42.094Z,19.53
2018-09-03T03:32:09.609Z,17.87
2018-09-03T03:34:37.139Z,18.30
2018-09-03T03:37:04.768Z,19.17
2018-09-03T03:39:32.293Z,19.43
2018-09-03T03:41:59.847Z,20.10
2018-09-03T03:44:27.425Z,18.53
2018-09-03T03:46:54.969Z,19.53
2018-09-03T03:49:22.720Z,19.83
2018-09-03T03:51:50.250Z,17.87
2018-09-03T03:54:17.782Z,18.27
2018-09-03T03:56:45.286Z,18.33
2018-09-03T03:59:12.831Z,19.10
2018-09-03T04:01:40.371Z,18.60
2018-09-03T04:04:07.861Z,19.87
2018-09-03T04:06:35.357Z,18.67
2018-09-03T04:09:03.980Z,19.80
2018-09-03T04:11:31.482Z,17.53
2018-09-03T04:13:59.068Z,18.00
2018-09-03T04:16:26.605Z,18.60
2018-09-03T04:18:54.136Z,18.83
2018-09-03T04:21:21.708Z,20.70
2018-09-03T04:23:49.253Z,19.43
2018-09-03T04:26:16.781Z,17.80
2018-09-03T04:28:44.379Z,19.37
2018-09-03T04:31:11.942Z,19.33
2018-09-03T04:33:39.469Z,18.63
2018-09-03T04:36:07.041Z,20.20
2018-09-03T04:38:34.608Z,18.30
2018-09-03T04:41:02.168Z,18.43
2018-09-03T04:43:29.733Z,19.50
2018-09-03T04:45:57.239Z,17.93
2018-09-03T04:48:24.847Z,19.30
2018-09-03T04:50:52.392Z,18.63
2018-09-03T04:53:19.930Z,19.00
2018-09-03T04:55:47.412Z,18.03
2018-09-03T04:58:14.942Z,17.17
2018-09-03T05:00:42.479Z,17.27
2018-09-03T05:03:09.997Z,18.73
2018-09-03T05:05:37.547Z,17.40
2018-09-03T05:08:05.089Z,17.37
2018-09-03T05:10:32.562Z,18.37
2018-09-03T05:13:00.089Z,18.10
2018-09-03T05:15:27.586Z,17.90
2018-09-03T05:17:55.165Z,18.90
2018-09-03T05:20:22.727Z,18.23
2018-09-03T05:22:50.210Z,18.50
2018-09-03T05:25:17.712Z,18.00
2018-09-03T05:27:45.275Z,20.47
2018-09-03T05:30:12.781Z,19.50
2018-09-03T05:32:40.284Z,18.70
2018-09-03T05:35:07.842Z,17.93
2018-09-03T05:37:35.324Z,18.20
2018-09-03T05:40:02.888Z,16.67
2018-09-03T05:42:30.401Z,16.70
2018-09-03T05:44:57.885Z,19.07
2018-09-03T05:47:25.377Z,19.43
2018-09-03T05:49:52.924Z,17.70
2018-09-03T05:52:20.406Z,20.03
2018-09-03T05:54:47.917Z,19.17
2018-09-03T05:57:15.472Z,18.70
2018-09-03T05:59:42.975Z,17.90
2018-09-03T06:02:10.539Z,19.20
2018-09-03T06:04:38.105Z,19.80
2018-09-03T06:07:05.691Z,18.43
2018-09-03T06:09:33.219Z,19.30
2018-09-03T06:12:00.721Z,19.27
2018-09-03T06:14:28.199Z,19.40
2018-09-03T06:16:55.652Z,19.17
2018-09-03T06:19:23.181Z,19.67
2018-09-03T06:21:50.689Z,19.20
2018-09-03T06:24:18.202Z,18.57
2018-09-03T06:26:45.780Z,19.17
2018-09-03T06:29:13.300Z,19.30
2018-09-03T06:31:40.784Z,19.13
2018-09-03T06:34:08.346Z,18.17
2018-09-03T06:36:35.856Z,20.00
2018-09-03T06:39:04.844Z,18.77
2018-09-03T06:41:32.449Z,18.63
2018-09-03T06:43:59.993Z,18.57
2018-09-03T06:46:27.577Z,19.30
2018-09-03T06:48:55.115Z,18.70
2018-09-03T06:51:22.623Z,17.90
2018-09-03T06:53:50.162Z,18.40
2018-09-03T06:56:17.696Z,17.67
2018-09-03T06:58:45.228Z,16.90
2018-09-03T07:01:13.064Z,17.47
2018-09-03T07:03:41.021Z,18.30
2018-09-03T07:06:08.564Z,17.80
2018-09-03T07:08:36.841Z,16.43
2018-09-03T07:11:04.565Z,16.67
2018-09-03T07:13:32.066Z,18.10
2018-09-03T07:15:59.661Z,17.27
2018-09-03T07:18:27.236Z,16.37
2018-09-03T07:20:54.763Z,17.20
2018-09-03T07:23:22.260Z,15.60
2018-09-03T07:25:49.790Z,13.80
2018-09-03T07:28:17.371Z,15.00
2018-09-03T07:30:44.904Z,13.50
2018-09-03T07:33:12.449Z,14.43
2018-09-03T07:35:39.970Z,14.50
2018-09-03T07:38:07.467Z,13.10
2018-09-03T07:40:35.030Z,13.33
2018-09-03T07:43:02.644Z,12.90
2018-09-03T07:45:30.220Z,11.40
2018-09-03T07:47:57.752Z,11.20
2018-09-03T07:50:25.280Z,12.43
2018-09-03T07:52:52.777Z,11.60
2018-09-03T07:55:20.311Z,11.33
2018-09-03T07:57:47.853Z,11.53
2018-09-03T08:00:15.440Z,13.00
2018-09-03T08:02:42.956Z,11.87
2018-09-03T08:05:10.455Z,12.20
2018-09-03T08:07:37.952Z,13.37
2018-09-03T08:10:06.535Z,13.63
2018-09-03T08:12:34.082Z,13.10
2018-09-03T08:15:01.604Z,13.23
2018-09-03T08:17:29.149Z,13.50
2018-09-03T08:19:56.698Z,14.43
2018-09-03T08:22:24.286Z,13.60
2018-09-03T08:24:51.836Z,15.83
2018-09-03T08:27:19.348Z,13.77
2018-09-03T08:29:46.982Z,15.23
2018-09-03T08:32:14.544Z,14.17
2018-09-03T08:34:42.080Z,13.90
2018-09-03T08:37:09.595Z,15.10
2018-09-03T08:39:37.086Z,14.23
2018-09-03T08:42:04.917Z,15.43
2018-09-03T08:44:32.461Z,15.00
2018-09-03T08:46:59.997Z,14.80
2018-09-03T08:49:27.527Z,14.00
2018-09-03T08:51:55.065Z,14.77
2018-09-03T08:54:22.605Z,16.57
2018-09-03T08:56:50.187Z,15.13
2018-09-03T08:59:17.726Z,16.10
2018-09-03T09:01:45.252Z,15.90
2018-09-03T09:04:12.769Z,15.20
2018-09-03T09:06:40.341Z,13.83
2018-09-03T09:09:08.483Z,16.23
2018-09-03T09:11:36.114Z,15.30
2018-09-03T09:14:03.655Z,15.27
2018-09-03T09:16:31.241Z,15.00
2018-09-03T09:18:58.779Z,14.90
2018-09-03T09:21:26.349Z,16.03
2018-09-03T09:23:53.853Z,16.10
2018-09-03T09:26:21.366Z,16.37
2018-09-03T09:28:48.868Z,15.37
2018-09-03T09:31:16.705Z,15.33
2018-09-03T09:33:44.280Z,14.97
2018-09-03T09:36:11.938Z,15.87
2018-09-03T09:38:39.556Z,15.27
2018-09-03T09:41:07.051Z,19.03
2018-09-03T09:43:34.625Z,16.10
2018-09-03T09:46:02.224Z,15.87
2018-09-03T09:48:29.745Z,15.73
2018-09-03T09:50:57.258Z,14.60
2018-09-03T09:53:24.864Z,15.13
2018-09-03T09:55:52.385Z,16.03
2018-09-03T09:58:19.872Z,16.67
2018-09-03T10:00:52.925Z,18.67
2018-09-03T11:08:52.163Z,14.57
2018-09-03T11:11:19.728Z,15.27
2018-09-03T11:13:47.242Z,15.40
2018-09-03T11:16:14.761Z,15.33
2018-09-03T11:18:42.304Z,14.20
2018-09-03T11:21:09.873Z,15.97
2018-09-03T11:23:37.387Z,15.23
2018-09-03T11:26:05.264Z,15.00
2018-09-03T11:28:32.951Z,15.70
2018-09-03T11:31:00.405Z,15.23
2018-09-03T11:33:27.952Z,16.23
2018-09-03T11:35:55.480Z,14.63
2018-09-03T11:38:23.016Z,15.20
2018-09-03T11:40:50.677Z,15.33
2018-09-03T11:43:18.222Z,14.30
2018-09-03T11:45:45.886Z,14.53
2018-09-03T11:48:13.453Z,15.20
2018-09-03T11:50:40.971Z,12.40
2018-09-03T11:53:08.564Z,13.83
2018-09-03T11:55:36.091Z,12.90
2018-09-03T11:58:03.714Z,13.90
2018-09-03T12:00:31.351Z,15.20
2018-09-03T12:02:59.198Z,14.07
2018-09-03T12:05:27.507Z,13.90
2018-09-03T12:07:55.149Z,14.13
2018-09-03T12:10:22.805Z,14.83
2018-09-03T12:12:50.368Z,15.13
2018-09-03T12:15:23.592Z,13.23
2018-09-03T12:17:51.159Z,14.23
2018-09-03T12:20:18.857Z,13.37
2018-09-03T12:22:46.397Z,14.00
2018-09-03T12:25:13.940Z,15.27
2018-09-03T12:27:41.543Z,13.50
2018-09-03T12:30:09.103Z,14.00
2018-09-03T12:32:36.723Z,14.30
2018-09-03T12:35:04.429Z,13.30
2018-09-03T12:37:31.970Z,14.10
2018-09-03T12:39:59.605Z,13.50
2018-09-03T12:42:27.149Z,11.03
2018-09-03T12:44:54.648Z,11.13
2018-09-03T12:47:22.205Z,11.80
2018-09-03T12:49:49.752Z,12.10
2018-09-03T12:52:17.555Z,12.10
2018-09-03T12:54:45.099Z,13.17
2018-09-03T12:57:12.629Z,11.83
2018-09-03T12:59:40.374Z,12.47
2018-09-03T13:02:08.800Z,12.93
2018-09-03T13:04:36.709Z,12.33
2018-09-03T13:07:04.497Z,12.33
2018-09-03T13:09:32.158Z,11.70
2018-09-03T13:11:59.793Z,12.30
2018-09-03T13:14:27.474Z,12.60
2018-09-03T13:16:55.139Z,11.00
2018-09-03T13:19:22.871Z,12.37
2018-09-03T13:21:50.458Z,11.17
2018-09-03T13:24:18.131Z,11.20
2018-09-03T13:26:45.861Z,12.13
2018-09-03T13:29:13.571Z,10.80
2018-09-03T13:31:41.244Z,12.37
2018-09-03T13:34:09.097Z,11.00
2018-09-03T13:36:36.719Z,12.27
2018-09-03T13:39:06.948Z,11.37
2018-09-03T13:41:34.571Z,11.07
2018-09-03T13:44:02.158Z,11.27
2018-09-03T13:46:29.754Z,11.37
2018-09-03T13:48:57.455Z,10.50
2018-09-03T13:51:25.041Z,11.23
2018-09-03T13:53:53.169Z,8.33
2018-09-03T13:56:20.892Z,8.30
2018-09-03T13:58:48.999Z,7.77
2018-09-03T14:01:16.680Z,7.63
2018-09-03T14:03:44.313Z,6.20
2018-09-03T14:06:11.946Z,6.37
2018-09-03T14:08:39.879Z,6.67
2018-09-03T14:11:07.480Z,8.43
2018-09-03T14:13:35.123Z,9.47
2018-09-03T14:16:02.792Z,10.10
2018-09-03T14:18:30.447Z,9.40
2018-09-03T14:20:58.158Z,9.80
2018-09-03T14:23:25.967Z,8.27
2018-09-03T14:25:53.644Z,8.90
2018-09-03T14:28:21.318Z,9.47
2018-09-03T14:30:48.927Z,11.07
2018-09-03T14:33:16.510Z,8.00
2018-09-03T14:35:44.094Z,11.03
2018-09-03T14:38:11.752Z,14.27
2018-09-03T14:40:39.414Z,16.90
2018-09-03T14:43:07.037Z,13.63
2018-09-03T14:45:34.581Z,10.13
2018-09-03T14:48:02.241Z,9.83
2018-09-03T14:50:29.904Z,8.90
2018-09-03T14:52:57.614Z,9.43
2018-09-03T14:55:25.188Z,8.40
2018-09-03T14:57:52.776Z,8.93
2018-09-03T15:00:20.337Z,7.30
2018-09-03T15:02:47.921Z,7.63
2018-09-03T15:05:15.453Z,7.10
2018-09-03T15:07:43.052Z,7.43
2018-09-03T15:10:10.556Z,7.70
2018-09-03T15:12:38.085Z,8.97
2018-09-03T15:15:05.845Z,7.93
2018-09-03T15:17:33.272Z,7.93
2018-09-03T15:20:00.792Z,7.20
2018-09-03T15:22:28.330Z,8.03
2018-09-03T15:24:55.973Z,8.20
2018-09-03T15:27:23.552Z,8.07
2018-09-03T15:29:51.073Z,9.23
2018-09-03T15:32:18.671Z,8.17
2018-09-03T15:34:46.213Z,8.97
2018-09-03T15:37:13.752Z,8.57
2018-09-03T15:39:41.291Z,9.03
2018-09-03T15:42:08.862Z,8.57
2018-09-03T15:44:36.480Z,8.03
2018-09-03T15:47:04.116Z,7.83
2018-09-03T15:49:31.807Z,9.13
2018-09-03T15:51:59.408Z,8.20
2018-09-03T15:54:26.956Z,8.30
2018-09-03T15:56:54.506Z,7.60
2018-09-03T15:59:22.153Z,8.10
2018-09-03T16:01:49.763Z,7.80
2018-09-03T16:04:17.391Z,8.80
2018-09-03T16:06:45.012Z,8.63
2018-09-03T16:09:12.612Z,7.70
2018-09-03T16:11:40.157Z,8.83
2018-09-03T16:14:08.362Z,7.87
2018-09-03T16:16:36.155Z,8.07
2018-09-03T16:19:03.895Z,7.83
2018-09-03T16:21:31.500Z,8.63
2018-09-03T16:23:59.145Z,7.87
2018-09-03T16:26:26.726Z,7.40
2018-09-03T16:28:54.360Z,7.93
2018-09-03T16:31:21.963Z,7.07
2018-09-03T16:33:49.655Z,7.50
2018-09-03T16:36:17.281Z,8.27
2018-09-03T16:38:44.912Z,7.80
2018-09-03T16:41:12.560Z,8.00
2018-09-03T16:43:40.277Z,8.40
2018-09-03T16:46:07.968Z,9.90
2018-09-03T16:48:35.620Z,9.07
2018-09-03T16:51:03.280Z,8.23
2018-09-03T16:53:30.844Z,6.93
2018-09-03T16:55:58.399Z,7.50
2018-09-03T16:58:25.943Z,7.20
2018-09-03T17:00:53.547Z,6.37
2018-09-03T17:03:21.065Z,6.93
2018-09-03T17:05:48.620Z,6.50
2018-09-03T17:08:16.216Z,7.23
2018-09-03T17:10:43.793Z,6.87
2018-09-03T17:13:11.338Z,7.03
2018-09-03T17:15:38.883Z,6.57
2018-09-03T17:18:06.551Z,7.50
2018-09-03T17:20:34.197Z,7.93
2018-09-03T17:23:01.647Z,9.37
2018-09-03T17:25:29.264Z,9.47
2018-09-03T17:27:56.840Z,9.63
2018-09-03T17:30:24.372Z,8.63
2018-09-03T17:32:51.980Z,8.87
2018-09-03T17:35:20.164Z,9.83
2018-09-03T17:37:47.877Z,10.50
2018-09-03T17:40:15.462Z,10.67
2018-09-03T17:42:43.216Z,11.20
2018-09-03T17:45:10.842Z,10.20
2018-09-03T17:47:39.594Z,11.07
2018-09-03T17:50:07.260Z,10.80
2018-09-03T17:52:34.875Z,11.57
2018-09-03T17:55:02.461Z,12.57
2018-09-03T17:57:30.025Z,12.40
2018-09-03T17:59:57.632Z,13.03
2018-09-03T18:02:26.116Z,12.80
2018-09-03T18:04:53.734Z,12.70
2018-09-03T18:07:21.340Z,12.07
2018-09-03T18:09:48.925Z,14.20
2018-09-03T18:12:16.541Z,11.97
2018-09-03T18:14:44.153Z,12.20
2018-09-03T18:17:11.854Z,10.30
2018-09-03T18:19:39.551Z,10.33
2018-09-03T18:22:07.166Z,9.80
2018-09-03T18:24:34.789Z,10.27
2018-09-03T18:27:02.411Z,9.20
2018-09-03T18:29:30.025Z,10.73
2018-09-03T18:31:58.264Z,10.00
2018-09-03T18:34:25.904Z,11.27
2018-09-03T18:36:53.691Z,10.20
2018-09-03T18:39:21.387Z,9.63
2018-09-03T18:41:49.107Z,10.33
2018-09-03T18:44:16.971Z,11.40
2018-09-03T18:46:44.709Z,11.13
2018-09-03T18:49:12.473Z,11.43
2018-09-03T18:51:40.598Z,11.80
2018-09-03T18:54:08.863Z,10.93
2018-09-03T18:56:36.666Z,11.10
2018-09-03T18:59:05.017Z,12.60
2018-09-03T19:01:32.773Z,12.97
2018-09-03T19:04:00.632Z,11.00
2018-09-03T19:06:28.396Z,11.93
2018-09-03T19:08:56.242Z,11.40
2018-09-03T19:11:24.076Z,11.13
2018-09-03T19:13:51.904Z,10.93
2018-09-03T19:16:19.657Z,11.00
2018-09-03T19:18:47.699Z,10.47
2018-09-03T19:21:15.830Z,10.13
2018-09-03T19:23:43.918Z,11.03
2018-09-03T19:26:11.766Z,9.60
2018-09-03T19:28:39.701Z,10.97
2018-09-03T19:31:07.976Z,11.70
2018-09-03T19:33:36.981Z,10.03
2018-09-03T19:36:04.950Z,12.03
2018-09-03T19:38:32.995Z,11.37
2018-09-03T19:41:01.173Z,11.63
2018-09-03T19:43:29.416Z,11.63
2018-09-03T19:45:57.330Z,12.50
2018-09-03T19:48:25.074Z,11.37
2018-09-03T19:50:53.056Z,13.13
2018-09-03T19:53:21.152Z,12.47
2018-09-03T19:55:49.050Z,13.80
2018-09-03T19:58:16.959Z,13.53
2018-09-03T20:00:44.831Z,14.03
2018-09-03T20:03:12.670Z,15.03
2018-09-03T20:05:40.567Z,14.83
2018-09-03T20:08:08.183Z,13.93
2018-09-03T20:10:36.087Z,14.13
2018-09-03T20:13:03.732Z,14.83
2018-09-03T20:15:31.592Z,13.87
2018-09-03T20:17:59.270Z,13.87
2018-09-03T20:20:26.858Z,14.47
2018-09-03T20:22:54.833Z,12.23
2018-09-03T20:25:22.640Z,13.30
2018-09-03T20:27:50.433Z,11.80
2018-09-03T20:30:18.137Z,11.13
2018-09-03T20:32:45.751Z,11.57
2018-09-03T20:35:13.438Z,10.73
2018-09-03T20:37:41.047Z,12.90
2018-09-03T20:40:08.706Z,12.23
2018-09-03T20:42:36.372Z,10.83
2018-09-03T20:45:04.117Z,11.60
2018-09-03T20:47:31.796Z,12.70
2018-09-03T20:49:59.444Z,11.57
2018-09-03T20:52:27.115Z,11.33
2018-09-03T20:54:55.329Z,11.83
2018-09-03T20:57:22.950Z,11.13
2018-09-03T20:59:50.503Z,10.40
2018-09-03T21:02:18.055Z,11.20
2018-09-03T21:04:45.650Z,12.07
2018-09-03T21:07:13.615Z,11.57
2018-09-03T21:09:41.183Z,10.90
2018-09-03T21:12:08.856Z,11.90
2018-09-03T21:14:36.509Z,11.70
2018-09-03T21:17:04.236Z,12.10
2018-09-03T21:19:31.822Z,10.17
2018-09-03T21:21:59.472Z,10.20
2018-09-03T21:24:27.062Z,10.57
2018-09-03T21:26:54.649Z,10.80
2018-09-03T21:29:22.215Z,9.40
2018-09-03T21:31:49.875Z,8.57
2018-09-03T21:34:17.442Z,10.07
2018-09-03T21:36:45.057Z,9.30
2018-09-03T21:39:12.678Z,9.53
2018-09-03T21:41:40.311Z,8.90
2018-09-03T21:44:07.977Z,9.27
2018-09-03T21:46:35.524Z,9.70
2018-09-03T21:49:03.113Z,9.77
2018-09-03T21:51:30.715Z,10.70
2018-09-03T21:53:58.302Z,9.10
2018-09-03T21:56:25.809Z,10.60
2018-09-03T21:58:53.403Z,10.40
2018-09-03T22:01:20.951Z,10.93
2018-09-03T22:03:48.472Z,10.10
2018-09-03T22:06:16.047Z,10.30
2018-09-03T22:08:43.652Z,9.50
2018-09-03T22:11:11.220Z,10.47
2018-09-03T22:13:38.772Z,11.60
2018-09-03T22:16:08.050Z,9.90
2018-09-03T22:18:37.146Z,10.57
2018-09-03T22:21:04.818Z,10.97
2018-09-03T22:23:32.385Z,10.60
2018-09-03T22:25:59.909Z,11.90
2018-09-03T22:28:27.402Z,12.30
2018-09-03T22:30:55.026Z,11.57
2018-09-03T22:33:22.703Z,12.50
2018-09-03T22:35:50.269Z,11.60
2018-09-03T22:38:17.772Z,12.37
2018-09-03T22:40:45.316Z,12.67
2018-09-03T22:43:12.853Z,14.20
2018-09-03T22:45:40.405Z,13.33
2018-09-03T22:48:08.069Z,13.93
2018-09-03T22:50:35.603Z,14.27
2018-09-03T22:53:03.102Z,14.83
2018-09-03T22:55:30.921Z,14.80
2018-09-03T22:57:58.406Z,18.93
2018-09-03T23:00:25.961Z,18.30
2018-09-03T23:02:53.511Z,20.57
2018-09-03T23:05:21.071Z,19.80
2018-09-03T23:07:48.596Z,22.17
2018-09-03T23:10:16.116Z,17.83
2018-09-03T23:12:43.658Z,18.17
2018-09-03T23:15:11.186Z,19.30
2018-09-03T23:17:38.686Z,18.97
2018-09-03T23:20:06.312Z,19.23
2018-09-03T23:22:33.831Z,18.90
2018-09-03T23:25:01.311Z,20.63
2018-09-03T23:27:28.835Z,19.93
2018-09-03T23:29:56.421Z,19.00
2018-09-03T23:32:23.992Z,17.70
2018-09-03T23:34:51.472Z,18.53
2018-09-03T23:37:18.955Z,20.43
2018-09-03T23:39:46.467Z,18.43
2018-09-03T23:42:13.960Z,18.53
2018-09-03T23:44:41.477Z,18.00
2018-09-03T23:47:09.037Z,17.27
2018-09-03T23:49:36.543Z,16.73
2018-09-03T23:52:04.359Z,16.97
2018-09-03T23:54:31.879Z,15.80
2018-09-03T23:56:59.455Z,16.27
2018-09-03T23:59:26.987Z,16.33
